Time;durP1;ratioP1;P1;durP2;ratioP2;P2;SDS_P1;SDS_P2;PMS_P1;PMS_P2;Temp;Humidity;BMP_temperature;BMP_pressure;BME280_temperature;BME280_humidity;BME280_pressure;Samples;Min_cycle;Max_cycle;Signal;HPM_P1;HPM_P2
2023/03/22 00:00:54;;;;;;;12.68;5.40;;;8.50;99.90;;;;;;4864527;29;20041;-74
2023/03/22 00:03:22;;;;;;;12.30;4.78;;;8.50;99.90;;;;;;4859440;29;20116;-74
2023/03/22 00:05:48;;;;;;;18.17;5.70;;;8.50;99.90;;;;;;4859825;29;20067;-73
2023/03/22 00:08:14;;;;;;;13.27;4.40;;;8.50;99.90;;;;;;4842193;29;20521;-74
2023/03/22 00:10:41;;;;;;;12.70;4.93;;;8.50;99.90;;;;;;4870258;29;20040;-74
2023/03/22 00:13:08;;;;;;;14.48;4.28;;;8.50;99.90;;;;;;4844610;29;20382;-73
2023/03/22 00:15:35;;;;;;;14.68;4.93;;;8.40;99.90;;;;;;4860143;29;20175;-73
2023/03/22 00:18:02;;;;;;;11.90;3.88;;;8.40;99.90;;;;;;4844884;29;20044;-74
2023/03/22 00:20:35;;;;;;;12.48;4.00;;;8.50;99.90;;;;;;4873567;29;20056;-74
2023/03/22 00:23:01;;;;;;;13.65;3.63;;;8.40;99.90;;;;;;4845504;29;20076;-74
2023/03/22 00:25:27;;;;;;;11.77;3.83;;;8.40;99.90;;;;;;4847013;29;20725;-74
2023/03/22 00:27:53;;;;;;;11.17;3.13;;;8.40;99.90;;;;;;4859795;29;20077;-74
2023/03/22 00:30:18;;;;;;;12.43;3.30;;;8.40;99.90;;;;;;4844352;29;20047;-74
2023/03/22 00:32:44;;;;;;;10.97;3.37;;;8.40;99.90;;;;;;4859609;29;20139;-74
2023/03/22 00:35:11;;;;;;;10.77;3.07;;;8.40;99.90;;;;;;4861111;29;20049;-74
2023/03/22 00:37:37;;;;;;;11.20;3.05;;;8.40;99.90;;;;;;4854558;29;20166;-74
2023/03/22 00:40:10;;;;;;;8.48;3.08;;;8.40;99.90;;;;;;4838472;29;20500;-74
2023/03/22 00:42:37;;;;;;;15.25;2.45;;;8.40;99.90;;;;;;4853442;29;20092;-74
2023/03/22 00:45:05;;;;;;;9.07;2.63;;;8.40;99.90;;;;;;4859139;29;20045;-74
2023/03/22 00:47:31;;;;;;;15.43;2.70;;;8.40;99.90;;;;;;4857262;29;20045;-74
2023/03/22 00:49:56;;;;;;;7.73;2.53;;;8.40;99.90;;;;;;4859593;29;20048;-74
2023/03/22 00:52:22;;;;;;;12.27;2.40;;;8.40;99.90;;;;;;4847859;29;20076;-74
2023/03/22 00:54:48;;;;;;;10.13;2.60;;;8.40;99.90;;;;;;4867028;29;20048;-74
2023/03/22 00:57:14;;;;;;;11.60;2.90;;;8.40;99.90;;;;;;4860204;29;20045;-74
2023/03/22 00:59:41;;;;;;;11.10;3.07;;;8.40;99.90;;;;;;4848406;29;20048;-74
2023/03/22 01:02:08;;;;;;;8.90;2.55;;;8.40;99.90;;;;;;4853894;29;20109;-74
2023/03/22 01:04:35;;;;;;;9.80;2.25;;;8.30;99.90;;;;;;4878139;29;20044;-74
2023/03/22 01:07:02;;;;;;;10.07;2.45;;;8.30;99.90;;;;;;4857602;29;20169;-74
2023/03/22 01:09:32;;;;;;;11.85;2.45;;;8.30;99.90;;;;;;4863774;29;20063;-74
2023/03/22 01:11:58;;;;;;;11.85;1.80;;;8.30;99.90;;;;;;4854089;29;20421;-74
2023/03/22 01:14:25;;;;;;;9.25;1.92;;;8.30;99.90;;;;;;4862825;29;20417;-74
2023/03/22 01:16:53;;;;;;;9.07;2.20;;;8.20;99.90;;;;;;4843046;29;20052;-74
2023/03/22 01:19:20;;;;;;;8.73;1.92;;;8.20;99.90;;;;;;4876492;29;20044;-74
2023/03/22 01:21:46;;;;;;;9.63;1.90;;;8.20;99.90;;;;;;4860714;29;20048;-74
2023/03/22 01:24:11;;;;;;;11.73;1.83;;;8.10;99.90;;;;;;4879499;29;20059;-74
2023/03/22 01:26:37;;;;;;;12.20;1.57;;;8.10;99.90;;;;;;4862516;29;20513;-74
2023/03/22 01:29:04;;;;;;;8.80;1.83;;;8.00;99.90;;;;;;4858863;29;20111;-74
2023/03/22 01:31:30;;;;;;;12.10;1.92;;;8.00;99.90;;;;;;4869732;29;20131;-74
2023/03/22 01:33:56;;;;;;;10.70;2.28;;;8.00;99.90;;;;;;4866743;29;20109;-73
2023/03/22 01:36:21;;;;;;;11.13;2.07;;;7.90;99.90;;;;;;4863576;29;20509;-73
2023/03/22 01:38:47;;;;;;;12.73;2.50;;;7.90;99.90;;;;;;4848506;29;20261;-73
2023/03/22 01:41:14;;;;;;;10.77;1.80;;;7.90;99.90;;;;;;4860390;29;20041;-73
2023/03/22 01:43:40;;;;;;;10.40;2.30;;;7.90;99.90;;;;;;4861083;29;20047;-74
2023/03/22 01:46:05;;;;;;;9.73;2.00;;;7.90;99.90;;;;;;4858916;29;20490;-74
2023/03/22 01:48:36;;;;;;;9.80;1.90;;;8.00;99.90;;;;;;4875925;29;20045;-74
2023/03/22 01:51:07;;;;;;;10.00;1.98;;;8.00;99.90;;;;;;4845233;29;20077;-74
2023/03/22 01:53:38;;;;;;;13.18;1.83;;;8.00;99.90;;;;;;4876581;29;20053;-74
2023/03/22 01:56:05;;;;;;;8.35;1.85;;;8.00;99.90;;;;;;4850156;29;20093;-74
2023/03/22 01:58:32;;;;;;;14.10;1.95;;;8.10;99.90;;;;;;4857465;29;20561;-74
2023/03/22 02:00:58;;;;;;;12.43;1.80;;;8.10;99.90;;;;;;4857016;29;20040;-74
2023/03/22 02:03:53;;;;;;;11.70;1.90;;;8.20;99.90;;;;;;4845900;29;20041;-74
2023/03/22 02:06:19;;;;;;;11.52;1.77;;;8.20;99.90;;;;;;4858048;29;20049;-74
2023/03/22 02:08:45;;;;;;;8.40;1.63;;;8.20;99.90;;;;;;4858855;29;20123;-74
2023/03/22 02:11:28;;;;;;;11.87;2.00;;;8.20;99.90;;;;;;4858526;29;20172;-74
2023/03/22 02:14:24;;;;;;;11.23;1.70;;;8.20;99.90;;;;;;4871086;29;20123;-74
2023/03/22 02:17:05;;;;;;;11.82;1.67;;;8.20;99.90;;;;;;4853633;29;20045;-74
2023/03/22 02:19:53;;;;;;;12.57;1.75;;;8.30;99.90;;;;;;4862858;29;20053;-74
2023/03/22 02:23:02;;;;;;;13.25;1.52;;;8.30;99.90;;;;;;4874784;29;20049;-74
2023/03/22 02:25:59;;;;;;;10.20;2.22;;;8.30;99.90;;;;;;4880479;29;20049;-74
2023/03/22 02:28:46;;;;;;;14.82;1.92;;;8.30;99.90;;;;;;4862273;29;20053;-74
2023/03/22 02:31:18;;;;;;;13.27;2.13;;;8.30;99.90;;;;;;4869843;29;20044;-73
2023/03/22 02:33:56;;;;;;;15.55;2.42;;;8.30;99.90;;;;;;4865464;29;20045;-73
2023/03/22 02:36:43;;;;;;;11.73;2.03;;;8.30;99.90;;;;;;4874876;29;20055;-74
2023/03/22 02:39:28;;;;;;;8.73;1.77;;;8.30;99.90;;;;;;4878023;29;20246;-74
2023/03/22 02:42:21;;;;;;;11.25;1.85;;;8.30;99.90;;;;;;4874249;29;20041;-74
2023/03/22 02:44:52;;;;;;;8.20;1.40;;;8.40;99.90;;;;;;4856190;29;20077;-74
2023/03/22 02:47:37;;;;;;;9.80;1.50;;;8.40;99.90;;;;;;4849537;29;20048;-74
2023/03/22 02:50:21;;;;;;;9.15;1.50;;;8.50;99.90;;;;;;4879529;29;20107;-74
2023/03/22 02:53:04;;;;;;;9.80;1.55;;;8.50;99.90;;;;;;4873253;29;20128;-74
2023/03/22 02:55:40;;;;;;;10.20;1.92;;;8.50;99.90;;;;;;4866160;29;20044;-74
2023/03/22 02:58:14;;;;;;;15.80;2.40;;;8.60;99.90;;;;;;4850651;29;20053;-74
2023/03/22 03:00:41;;;;;;;10.45;1.55;;;8.60;99.90;;;;;;4867283;29;20136;-74
2023/03/22 03:03:18;;;;;;;11.60;1.70;;;8.60;99.90;;;;;;4859929;29;20043;-74
2023/03/22 03:05:54;;;;;;;12.13;1.52;;;8.70;99.90;;;;;;4876395;29;20037;-74
2023/03/22 03:08:22;;;;;;;10.57;1.75;;;8.70;99.90;;;;;;4868118;29;20120;-74
2023/03/22 03:10:50;;;;;;;11.50;1.77;;;8.70;99.90;;;;;;4875166;29;20056;-74
2023/03/22 03:13:17;;;;;;;13.65;1.75;;;8.80;99.90;;;;;;4845672;29;20053;-74
2023/03/22 03:15:47;;;;;;;13.00;1.60;;;8.80;99.90;;;;;;4869411;29;20437;-74
2023/03/22 03:18:37;;;;;;;11.35;2.53;;;8.80;99.90;;;;;;4851498;29;20376;-74
2023/03/22 03:21:20;;;;;;;8.40;1.58;;;8.90;99.90;;;;;;4860438;29;20486;-74
2023/03/22 03:23:53;;;;;;;10.00;1.73;;;8.90;99.90;;;;;;4872800;29;20095;-73
2023/03/22 03:26:37;;;;;;;8.98;1.40;;;8.90;99.90;;;;;;4852057;29;20457;-73
2023/03/22 03:29:18;;;;;;;10.02;2.25;;;9.00;99.90;;;;;;4874191;29;20080;-74
2023/03/22 03:32:14;;;;;;;10.32;1.80;;;9.00;99.90;;;;;;4855391;29;20044;-74
2023/03/22 03:34:56;;;;;;;7.82;1.65;;;9.00;99.90;;;;;;4864199;29;20084;-74
2023/03/22 03:37:47;;;;;;;12.60;2.08;;;9.10;99.90;;;;;;4875591;29;20060;-74
2023/03/22 03:40:18;;;;;;;12.80;1.80;;;9.10;99.90;;;;;;4849924;29;20044;-74
2023/03/22 03:42:48;;;;;;;12.18;2.08;;;9.10;99.90;;;;;;4868368;29;20124;-73
2023/03/22 03:45:16;;;;;;;13.45;2.50;;;9.10;99.90;;;;;;4862660;29;20094;-73
2023/03/22 03:47:45;;;;;;;9.20;1.53;;;9.10;99.90;;;;;;4858558;29;20472;-74
2023/03/22 03:50:14;;;;;;;7.53;2.08;;;9.00;99.90;;;;;;4860198;29;20697;-74
2023/03/22 03:52:40;;;;;;;7.38;1.98;;;9.00;99.90;;;;;;4862866;29;20048;-74
2023/03/22 03:55:06;;;;;;;10.40;1.90;;;9.00;99.90;;;;;;4862297;29;20059;-74
2023/03/22 03:57:32;;;;;;;7.93;1.50;;;9.00;99.90;;;;;;4866930;29;20041;-74
2023/03/22 03:59:57;;;;;;;12.80;1.90;;;9.00;99.90;;;;;;4843010;29;20158;-74
2023/03/22 04:02:23;;;;;;;12.43;1.83;;;9.00;99.90;;;;;;4860228;29;20045;-74
2023/03/22 04:04:49;;;;;;;13.43;1.87;;;8.90;99.90;;;;;;4862323;29;20112;-74
2023/03/22 04:07:14;;;;;;;12.80;1.50;;;8.90;99.90;;;;;;4838166;29;20045;-74
2023/03/22 04:09:41;;;;;;;14.10;2.37;;;8.90;99.90;;;;;;4843901;29;20044;-74
2023/03/22 04:12:10;;;;;;;12.38;1.98;;;8.90;99.90;;;;;;4866817;29;20048;-74
2023/03/22 04:14:36;;;;;;;8.68;2.00;;;8.90;99.90;;;;;;4872218;29;20080;-73
2023/03/22 04:17:02;;;;;;;11.48;2.03;;;8.90;99.90;;;;;;4856889;29;20774;-73
2023/03/22 04:19:28;;;;;;;9.30;2.28;;;8.90;99.90;;;;;;4856827;29;20390;-74
2023/03/22 04:21:53;;;;;;;11.77;2.40;;;8.90;99.90;;;;;;4868294;29;20037;-74
2023/03/22 04:24:21;;;;;;;13.00;3.27;;;8.80;99.90;;;;;;4859274;29;20450;-74
2023/03/22 04:26:47;;;;;;;12.30;2.53;;;8.80;99.90;;;;;;4853358;29;20048;-74
2023/03/22 04:29:13;;;;;;;10.30;2.50;;;8.80;99.90;;;;;;4864333;29;20296;-74
2023/03/22 04:31:39;;;;;;;13.37;2.93;;;8.70;99.90;;;;;;4862894;29;20083;-74
2023/03/22 04:34:05;;;;;;;7.60;2.97;;;8.70;99.90;;;;;;4862128;29;20284;-74
2023/03/22 04:36:35;;;;;;;7.73;3.10;;;8.70;99.90;;;;;;4858862;29;20288;-74
2023/03/22 04:39:04;;;;;;;14.27;3.67;;;8.70;99.90;;;;;;4869538;29;20323;-74
2023/03/22 04:41:31;;;;;;;10.68;3.05;;;8.70;99.90;;;;;;4863091;29;20041;-74
2023/03/22 04:44:01;;;;;;;13.43;4.20;;;8.70;99.90;;;;;;4847821;29;20047;-74
2023/03/22 04:46:28;;;;;;;9.68;3.70;;;8.70;99.90;;;;;;4847310;29;20052;-74
2023/03/22 04:48:53;;;;;;;11.15;3.85;;;8.70;99.90;;;;;;4863020;29;20045;-74
2023/03/22 04:51:19;;;;;;;16.10;4.47;;;8.70;99.90;;;;;;4882091;29;20035;-74
2023/03/22 04:53:45;;;;;;;15.57;4.87;;;8.70;99.90;;;;;;4878585;29;20040;-74
2023/03/22 04:56:13;;;;;;;13.02;4.25;;;8.70;99.90;;;;;;4863378;29;20041;-74
2023/03/22 04:58:41;;;;;;;11.70;3.97;;;8.70;99.90;;;;;;4878781;29;20780;-74
2023/03/22 05:01:08;;;;;;;10.65;4.82;;;8.70;99.90;;;;;;4852426;29;20065;-74
2023/03/22 05:03:33;;;;;;;10.88;5.20;;;8.70;99.90;;;;;;4857351;29;20533;-74
2023/03/22 05:06:01;;;;;;;10.57;4.67;;;8.80;99.90;;;;;;4846626;29;20087;-74
2023/03/22 05:08:29;;;;;;;13.70;5.07;;;8.80;99.90;;;;;;4869028;29;20112;-74
2023/03/22 05:10:57;;;;;;;12.43;5.03;;;8.80;99.90;;;;;;4864210;29;20445;-74
2023/03/22 05:13:26;;;;;;;13.40;5.68;;;8.80;99.90;;;;;;4846983;29;20063;-73
2023/03/22 05:15:52;;;;;;;13.30;6.15;;;8.80;99.90;;;;;;4852270;29;20087;-73
2023/03/22 05:18:20;;;;;;;15.05;6.20;;;8.80;99.90;;;;;;4862723;29;20200;-73
2023/03/22 05:20:46;;;;;;;13.70;6.68;;;8.80;99.90;;;;;;4860568;29;20044;-73
2023/03/22 05:23:13;;;;;;;15.38;6.50;;;8.90;99.90;;;;;;4855060;29;20492;-74
2023/03/22 05:25:39;;;;;;;15.38;6.30;;;8.90;99.90;;;;;;4868201;29;20079;-74
2023/03/22 05:28:05;;;;;;;22.20;8.07;;;8.90;99.90;;;;;;4862787;29;20140;-73
2023/03/22 05:30:32;;;;;;;13.25;6.72;;;9.00;99.90;;;;;;4862129;29;20094;-73
2023/03/22 05:33:03;;;;;;;15.23;7.97;;;9.00;99.90;;;;;;4874728;29;20434;-73
2023/03/22 05:35:40;;;;;;;18.27;7.50;;;9.10;99.90;;;;;;4871884;29;20036;-73
2023/03/22 05:38:06;;;;;;;16.17;8.03;;;9.20;99.90;;;;;;4861355;29;20083;-73
2023/03/22 05:40:33;;;;;;;12.95;7.13;;;9.20;99.90;;;;;;4845314;29;20316;-73
2023/03/22 05:42:59;;;;;;;13.30;8.00;;;9.30;99.90;;;;;;4874335;29;20049;-74
2023/03/22 05:45:25;;;;;;;17.57;8.20;;;9.30;99.90;;;;;;4870196;29;20036;-74
2023/03/22 05:47:52;;;;;;;16.33;7.60;;;9.30;99.90;;;;;;4858452;29;20730;-73
2023/03/22 05:50:20;;;;;;;17.35;8.10;;;9.30;99.90;;;;;;4868149;29;20070;-74
2023/03/22 05:52:46;;;;;;;16.55;7.30;;;9.40;99.90;;;;;;4868003;29;20037;-74
2023/03/22 05:55:16;;;;;;;18.38;7.60;;;9.40;99.90;;;;;;4877062;29;20420;-74
2023/03/22 05:57:42;;;;;;;15.87;7.97;;;9.40;99.90;;;;;;4858406;29;20048;-73
2023/03/22 06:00:12;;;;;;;14.55;7.82;;;9.40;99.90;;;;;;4853570;29;20312;-74
2023/03/22 06:02:46;;;;;;;18.13;8.00;;;9.40;99.90;;;;;;4864767;29;20040;-74
2023/03/22 06:05:14;;;;;;;18.20;7.93;;;9.50;99.90;;;;;;4868415;29;20516;-74
2023/03/22 06:07:40;;;;;;;14.60;7.67;;;9.50;99.90;;;;;;4871450;29;20715;-74
2023/03/22 06:10:09;;;;;;;19.00;8.13;;;9.50;99.90;;;;;;4862184;29;20316;-74
2023/03/22 06:12:35;;;;;;;18.15;8.68;;;9.50;99.90;;;;;;4857616;29;20297;-74
2023/03/22 06:15:01;;;;;;;15.57;8.60;;;9.50;99.90;;;;;;4833971;29;20412;-74
2023/03/22 06:17:27;;;;;;;12.33;8.17;;;9.50;99.90;;;;;;4841327;29;20857;-74
2023/03/22 06:19:55;;;;;;;16.13;7.40;;;9.60;99.90;;;;;;4872028;29;20057;-74
2023/03/22 06:22:22;;;;;;;16.00;7.43;;;9.60;99.90;;;;;;4831292;29;20060;-74
2023/03/22 06:24:48;;;;;;;16.27;8.27;;;9.60;99.90;;;;;;4862153;29;20293;-73
2023/03/22 06:27:14;;;;;;;15.50;7.63;;;9.60;99.90;;;;;;4851373;29;20336;-73
2023/03/22 06:29:40;;;;;;;15.50;7.60;;;9.70;99.90;;;;;;4868699;29;20060;-73
2023/03/22 06:32:06;;;;;;;17.40;7.87;;;9.70;99.90;;;;;;4845911;29;20052;-74
2023/03/22 06:34:32;;;;;;;16.83;8.57;;;9.70;99.90;;;;;;4848071;29;20368;-74
2023/03/22 06:36:58;;;;;;;18.97;8.47;;;9.80;99.90;;;;;;4875450;29;20104;-74
2023/03/22 06:39:24;;;;;;;16.13;7.83;;;9.90;99.90;;;;;;4873460;29;20344;-74
2023/03/22 06:41:50;;;;;;;14.33;8.07;;;9.90;99.90;;;;;;4842066;29;20765;-74
2023/03/22 06:44:16;;;;;;;15.03;7.93;;;9.90;99.90;;;;;;4846025;29;20716;-74
2023/03/22 06:46:42;;;;;;;16.97;7.83;;;9.90;99.90;;;;;;4869280;29;20702;-74
2023/03/22 06:49:08;;;;;;;18.23;7.87;;;9.90;99.90;;;;;;4856723;29;20292;-74
2023/03/22 06:51:34;;;;;;;16.60;8.00;;;9.90;99.90;;;;;;4859695;29;20353;-74
2023/03/22 06:54:00;;;;;;;17.17;7.93;;;10.00;99.90;;;;;;4851874;29;20135;-74
2023/03/22 06:56:26;;;;;;;16.77;7.97;;;10.00;99.90;;;;;;4842704;29;20052;-74
2023/03/22 06:58:53;;;;;;;14.80;7.23;;;10.00;99.90;;;;;;4834420;29;20045;-74
2023/03/22 07:01:20;;;;;;;14.50;6.90;;;10.00;99.90;;;;;;4848064;29;20044;-75
2023/03/22 07:03:45;;;;;;;14.50;7.03;;;10.00;99.90;;;;;;4847998;29;20321;-74
2023/03/22 07:06:11;;;;;;;18.37;7.83;;;10.10;99.90;;;;;;4850421;29;20292;-74
2023/03/22 07:08:37;;;;;;;16.50;7.57;;;10.10;99.90;;;;;;4873071;29;20037;-74
2023/03/22 07:11:04;;;;;;;12.53;6.60;;;10.00;99.90;;;;;;4860426;29;20068;-74
2023/03/22 07:13:30;;;;;;;15.97;6.73;;;10.00;99.90;;;;;;4846270;29;20277;-74
2023/03/22 07:15:57;;;;;;;16.57;6.43;;;10.00;99.90;;;;;;4845894;29;20368;-74
2023/03/22 07:18:23;;;;;;;13.70;6.40;;;10.10;99.90;;;;;;4836862;29;20068;-74
2023/03/22 07:20:49;;;;;;;10.60;5.70;;;10.10;99.90;;;;;;4867384;29;20531;-74
2023/03/22 07:23:15;;;;;;;17.30;6.37;;;10.10;99.90;;;;;;4857736;29;20364;-74
2023/03/22 07:25:45;;;;;;;14.07;5.80;;;10.20;99.90;;;;;;4875500;29;20151;-74
2023/03/22 07:28:10;;;;;;;17.33;6.07;;;10.20;99.90;;;;;;4856999;29;20327;-74
2023/03/22 07:30:37;;;;;;;13.93;5.63;;;10.20;99.90;;;;;;4852986;29;20630;-74
2023/03/22 07:33:06;;;;;;;11.33;5.73;;;10.30;99.90;;;;;;4833178;29;20318;-74
2023/03/22 07:35:32;;;;;;;12.60;5.80;;;10.30;99.90;;;;;;4876792;29;20301;-74
2023/03/22 07:37:58;;;;;;;11.33;6.10;;;10.40;99.90;;;;;;4874548;29;20337;-74
2023/03/22 07:40:24;;;;;;;15.57;4.63;;;10.40;99.90;;;;;;4872988;29;20745;-74
2023/03/22 07:42:50;;;;;;;11.10;5.07;;;10.40;99.90;;;;;;4860672;29;20111;-74
2023/03/22 07:45:17;;;;;;;14.43;5.43;;;10.30;99.90;;;;;;4863399;29;20289;-75
2023/03/22 07:47:43;;;;;;;14.27;5.17;;;10.30;99.90;;;;;;4861450;29;20824;-75
2023/03/22 07:50:12;;;;;;;15.07;5.73;;;10.30;99.90;;;;;;4864228;29;20300;-74
2023/03/22 07:52:42;;;;;;;11.60;5.40;;;10.30;99.90;;;;;;4845202;29;20365;-74
2023/03/22 07:55:10;;;;;;;16.73;4.97;;;10.40;99.90;;;;;;4853363;29;20324;-74
2023/03/22 07:57:37;;;;;;;17.60;5.07;;;10.40;99.90;;;;;;4861499;29;20295;-75
2023/03/22 08:00:04;;;;;;;11.03;4.20;;;10.50;99.90;;;;;;4878694;29;20677;-75
2023/03/22 08:02:30;;;;;;;14.90;4.43;;;10.60;99.90;;;;;;4860539;29;20354;-74
2023/03/22 08:04:57;;;;;;;7.03;3.50;;;10.60;99.90;;;;;;4861098;29;20393;-75
2023/03/22 08:07:25;;;;;;;10.20;4.23;;;10.70;99.90;;;;;;4857701;29;20481;-75
2023/03/22 08:09:51;;;;;;;11.03;4.20;;;10.70;99.90;;;;;;4871731;29;20289;-74
2023/03/22 08:12:17;;;;;;;11.87;3.80;;;10.70;99.90;;;;;;4879934;29;20301;-74
2023/03/22 08:14:49;;;;;;;11.73;3.93;;;10.80;99.90;;;;;;4850087;29;20438;-74
2023/03/22 08:17:16;;;;;;;14.60;3.83;;;10.80;99.90;;;;;;4851137;29;20349;-75
2023/03/22 08:19:42;;;;;;;7.67;3.60;;;10.80;99.90;;;;;;4878883;29;20305;-75
2023/03/22 08:22:07;;;;;;;15.60;4.03;;;10.90;99.90;;;;;;4838518;29;20353;-74
2023/03/22 08:24:33;;;;;;;10.80;3.87;;;10.90;99.90;;;;;;4853648;29;20140;-74
2023/03/22 08:26:59;;;;;;;10.40;3.80;;;11.00;99.90;;;;;;4865214;29;20052;-74
2023/03/22 08:29:25;;;;;;;9.93;3.50;;;11.10;99.90;;;;;;4881138;29;20052;-75
2023/03/22 08:31:52;;;;;;;12.00;3.93;;;11.10;99.90;;;;;;4852262;29;20421;-76
2023/03/22 08:34:19;;;;;;;11.57;4.00;;;11.10;99.90;;;;;;4852691;29;20720;-75
2023/03/22 08:36:45;;;;;;;14.20;3.90;;;11.10;99.90;;;;;;4891463;29;20387;-74
2023/03/22 08:39:11;;;;;;;13.00;3.47;;;11.00;99.90;;;;;;4846110;29;20316;-75
2023/03/22 08:41:38;;;;;;;12.83;4.00;;;11.00;99.90;;;;;;4859785;29;20741;-74
2023/03/22 08:44:04;;;;;;;8.83;3.40;;;10.90;99.90;;;;;;4861696;29;20390;-74
2023/03/22 08:46:30;;;;;;;8.33;3.37;;;10.90;99.90;;;;;;4858875;29;20286;-74
2023/03/22 08:48:59;;;;;;;13.07;4.47;;;10.80;99.90;;;;;;4850947;29;20612;-74
2023/03/22 08:51:25;;;;;;;9.10;3.40;;;10.70;99.90;;;;;;4846257;29;20045;-75
2023/03/22 08:53:51;;;;;;;11.27;3.60;;;10.70;99.90;;;;;;4863062;29;20299;-74
2023/03/22 08:56:17;;;;;;;12.47;4.03;;;10.70;99.90;;;;;;4867108;29;20289;-74
2023/03/22 08:58:45;;;;;;;11.90;3.57;;;10.70;99.90;;;;;;4849686;29;20474;-74
2023/03/22 09:01:15;;;;;;;8.93;3.17;;;10.60;99.90;;;;;;4835935;29;20286;-74
2023/03/22 09:03:42;;;;;;;13.67;3.20;;;10.60;99.90;;;;;;4862942;29;20287;-74
2023/03/22 09:06:09;;;;;;;15.33;3.93;;;10.50;99.90;;;;;;4845759;29;20290;-73
2023/03/22 09:08:35;;;;;;;13.07;2.97;;;10.50;99.90;;;;;;4878069;29;20295;-74
2023/03/22 09:11:01;;;;;;;12.17;3.33;;;10.40;99.90;;;;;;4841637;29;20348;-74
2023/03/22 09:13:29;;;;;;;13.33;3.50;;;10.40;99.90;;;;;;4846753;29;20509;-74
2023/03/22 09:15:56;;;;;;;11.80;3.57;;;10.30;99.90;;;;;;4878169;29;20292;-74
2023/03/22 09:18:23;;;;;;;12.37;2.97;;;10.30;99.90;;;;;;4859725;29;20282;-74
2023/03/22 09:20:49;;;;;;;12.63;3.67;;;10.30;99.90;;;;;;4854687;29;20722;-74
2023/03/22 09:23:15;;;;;;;9.60;3.07;;;10.30;99.90;;;;;;4843483;29;20349;-74
2023/03/22 09:25:47;;;;;;;10.87;3.23;;;10.20;99.90;;;;;;4843507;29;20281;-74
2023/03/22 09:28:15;;;;;;;12.90;3.10;;;10.20;99.90;;;;;;4878437;29;20292;-74
2023/03/22 09:30:41;;;;;;;12.93;3.33;;;10.20;99.90;;;;;;4877175;29;20289;-74
2023/03/22 09:33:07;;;;;;;11.77;3.37;;;10.20;99.90;;;;;;4862231;29;20281;-74
2023/03/22 09:35:33;;;;;;;10.83;3.67;;;10.20;99.90;;;;;;4874355;29;20543;-74
2023/03/22 09:37:59;;;;;;;12.23;3.47;;;10.10;99.90;;;;;;4859794;29;20065;-74
2023/03/22 09:40:30;;;;;;;11.07;3.60;;;10.10;99.90;;;;;;4866589;29;20486;-73
2023/03/22 09:43:07;;;;;;;12.53;3.07;;;10.10;99.90;;;;;;4858805;29;20041;-74
2023/03/22 09:45:40;;;;;;;10.93;4.10;;;10.00;99.90;;;;;;4874032;29;20282;-74
2023/03/22 09:48:42;;;;;;;13.07;3.87;;;10.00;99.90;;;;;;4863879;29;20289;-74
2023/03/22 09:51:25;;;;;;;13.03;4.50;;;9.90;99.90;;;;;;4820378;29;20302;-74
2023/03/22 09:53:51;;;;;;;8.57;3.37;;;9.80;99.90;;;;;;4865904;29;20364;-74
2023/03/22 09:56:23;;;;;;;15.87;4.40;;;9.70;99.90;;;;;;4854207;29;20770;-73
2023/03/22 09:59:14;;;;;;;9.10;4.10;;;9.70;99.90;;;;;;4884667;29;20296;-73
2023/03/22 10:02:07;;;;;;;9.80;3.10;;;9.70;99.90;;;;;;4855511;29;20377;-73
2023/03/22 10:04:46;;;;;;;11.73;2.93;;;9.70;99.90;;;;;;4872488;29;20283;-74
2023/03/22 10:07:33;;;;;;;9.60;3.90;;;9.70;99.90;;;;;;4858223;29;20651;-74
2023/03/22 10:10:25;;;;;;;14.63;3.37;;;9.60;99.90;;;;;;4875456;29;20336;-73
2023/03/22 10:13:06;;;;;;;10.63;3.60;;;9.60;99.90;;;;;;4852287;29;20286;-73
2023/03/22 10:15:49;;;;;;;12.17;3.50;;;9.60;99.90;;;;;;4865233;29;20605;-73
2023/03/22 10:18:28;;;;;;;11.43;3.08;;;9.60;99.90;;;;;;4876626;29;20325;-73
2023/03/22 10:21:10;;;;;;;9.03;2.70;;;9.60;99.90;;;;;;4859479;29;20093;-74
2023/03/22 10:23:41;;;;;;;9.50;3.22;;;9.50;99.90;;;;;;4857475;29;20317;-74
2023/03/22 10:26:12;;;;;;;14.23;3.50;;;9.50;99.90;;;;;;4865898;29;20143;-74
2023/03/22 10:28:42;;;;;;;15.95;3.65;;;9.50;99.90;;;;;;4862060;29;20052;-74
2023/03/22 10:31:20;;;;;;;9.73;3.38;;;9.50;99.90;;;;;;4850502;29;20326;-73
2023/03/22 10:34:01;;;;;;;9.48;3.10;;;9.50;99.90;;;;;;4864513;29;20484;-74
2023/03/22 10:36:30;;;;;;;11.27;4.10;;;9.50;99.90;;;;;;4857612;29;20309;-74
2023/03/22 10:39:25;;;;;;;8.20;3.60;;;9.50;99.90;;;;;;4876081;29;20053;-74
2023/03/22 10:41:54;;;;;;;14.90;3.42;;;9.60;99.90;;;;;;4857231;29;20832;-74
2023/03/22 10:44:22;;;;;;;11.50;3.75;;;9.60;99.90;;;;;;4855949;29;20115;-74
2023/03/22 10:46:49;;;;;;;12.93;3.95;;;9.70;99.90;;;;;;4860338;29;20055;-74
2023/03/22 10:49:28;;;;;;;8.95;3.28;;;9.80;99.90;;;;;;4882176;29;20063;-74
2023/03/22 10:52:00;;;;;;;10.23;4.35;;;9.80;99.90;;;;;;4858189;29;20049;-74
2023/03/22 10:54:25;;;;;;;8.93;3.77;;;9.90;99.90;;;;;;4859917;29;20195;-74
2023/03/22 10:56:51;;;;;;;10.80;4.30;;;9.90;99.90;;;;;;4844941;29;20363;-74
2023/03/22 10:59:50;;;;;;;8.63;3.13;;;10.00;99.90;;;;;;4878303;29;20408;-74
2023/03/22 11:02:30;;;;;;;7.87;3.20;;;10.10;99.90;;;;;;4871159;29;20053;-74
2023/03/22 11:05:03;;;;;;;11.30;3.47;;;10.10;99.90;;;;;;4859368;29;20289;-74
2023/03/22 11:07:30;;;;;;;11.17;3.40;;;10.10;99.90;;;;;;4857248;29;20777;-74
2023/03/22 11:10:11;;;;;;;10.07;3.37;;;10.10;99.90;;;;;;4863029;29;20379;-74
2023/03/22 11:12:42;;;;;;;12.37;4.00;;;10.20;99.90;;;;;;4856859;29;20767;-74
2023/03/22 11:15:19;;;;;;;10.27;3.03;;;10.20;99.90;;;;;;4867214;29;20316;-74
2023/03/22 11:17:45;;;;;;;12.70;3.13;;;10.20;99.90;;;;;;4861621;29;20742;-74
2023/03/22 11:20:16;;;;;;;10.13;3.00;;;10.30;99.90;;;;;;4832535;29;20394;-74
2023/03/22 11:22:44;;;;;;;7.93;3.00;;;10.30;99.90;;;;;;4856697;29;20500;-74
2023/03/22 11:25:17;;;;;;;8.07;3.20;;;10.30;99.90;;;;;;4871673;29;20668;-74
2023/03/22 11:27:55;;;;;;;10.80;3.60;;;10.40;99.90;;;;;;4871085;29;20389;-74
2023/03/22 11:30:28;;;;;;;7.87;3.00;;;10.40;99.90;;;;;;4854950;29;20292;-74
2023/03/22 11:33:16;;;;;;;9.53;3.33;;;10.40;99.90;;;;;;4877534;29;20339;-75
2023/03/22 11:35:44;;;;;;;7.70;3.90;;;10.50;99.90;;;;;;4863293;29;20284;-75
2023/03/22 11:38:29;;;;;;;11.07;3.20;;;10.50;99.90;;;;;;4863990;29;20297;-75
2023/03/22 11:41:00;;;;;;;12.52;3.70;;;10.60;99.90;;;;;;4883144;29;20796;-75
2023/03/22 11:43:38;;;;;;;8.00;3.53;;;10.60;99.90;;;;;;4861776;29;20048;-75
2023/03/22 11:46:07;;;;;;;11.67;3.23;;;10.60;99.90;;;;;;4877662;29;20289;-75
2023/03/22 11:48:34;;;;;;;9.80;4.00;;;10.50;99.90;;;;;;4864327;29;20296;-75
2023/03/22 11:51:12;;;;;;;8.80;3.50;;;10.50;99.90;;;;;;4884495;29;20284;-74
2023/03/22 11:53:45;;;;;;;9.70;3.80;;;10.40;99.90;;;;;;4858825;29;20297;-75
2023/03/22 11:56:16;;;;;;;9.40;3.43;;;10.40;99.90;;;;;;4860562;29;20321;-75
2023/03/22 11:59:03;;;;;;;11.07;4.10;;;10.30;99.90;;;;;;4875509;29;20744;-75
2023/03/22 12:01:54;;;;;;;13.30;3.33;;;10.30;99.90;;;;;;4866941;29;20307;-75
2023/03/22 12:04:26;;;;;;;9.47;3.80;;;10.20;99.90;;;;;;4863203;29;20305;-75
2023/03/22 12:06:56;;;;;;;9.47;3.40;;;10.30;99.90;;;;;;4863448;29;20297;-76
2023/03/22 12:09:38;;;;;;;11.03;4.20;;;10.20;99.90;;;;;;4860624;29;20817;-75
2023/03/22 12:12:09;;;;;;;10.97;3.83;;;10.20;99.90;;;;;;4880670;29;20387;-75
2023/03/22 12:14:51;;;;;;;9.57;3.60;;;10.30;99.90;;;;;;4864603;29;20296;-75
2023/03/22 12:17:23;;;;;;;12.03;4.03;;;10.20;99.90;;;;;;4855767;29;20285;-76
2023/03/22 12:20:11;;;;;;;10.07;4.57;;;10.20;99.90;;;;;;4859559;29;20331;-74
2023/03/22 12:22:42;;;;;;;12.40;4.30;;;10.20;99.90;;;;;;4878331;29;20392;-75
2023/03/22 12:25:16;;;;;;;10.93;3.97;;;10.20;99.90;;;;;;4863139;29;20800;-75
2023/03/22 12:27:49;;;;;;;15.40;4.30;;;10.10;99.90;;;;;;4874138;29;20296;-75
2023/03/22 12:30:24;;;;;;;12.03;4.70;;;10.00;99.90;;;;;;4861947;29;20592;-76
2023/03/22 12:33:01;;;;;;;10.20;4.17;;;10.00;99.90;;;;;;4861914;29;20363;-75
2023/03/22 12:35:33;;;;;;;8.33;3.90;;;9.90;99.90;;;;;;4876641;29;20297;-75
2023/03/22 12:38:26;;;;;;;10.80;4.80;;;9.90;99.90;;;;;;4865422;29;20324;-75
2023/03/22 12:40:54;;;;;;;11.40;3.87;;;9.80;99.90;;;;;;4840571;29;20722;-75
2023/03/22 12:43:38;;;;;;;8.97;4.57;;;9.80;99.90;;;;;;4853404;29;20303;-75
2023/03/22 12:46:05;;;;;;;10.57;4.70;;;9.90;99.90;;;;;;4867159;29;20300;-75
2023/03/22 12:48:35;;;;;;;12.33;4.73;;;9.90;99.90;;;;;;4849993;29;20320;-75
2023/03/22 12:51:07;;;;;;;13.37;5.60;;;9.90;99.90;;;;;;4879911;29;20380;-75
2023/03/22 12:53:41;;;;;;;11.00;5.03;;;9.90;99.90;;;;;;4858787;29;20658;-75
2023/03/22 12:56:38;;;;;;;11.97;5.23;;;9.90;99.90;;;;;;4860842;29;20376;-75
2023/03/22 12:59:11;;;;;;;12.60;5.10;;;9.90;99.90;;;;;;4864352;29;20694;-76
2023/03/22 13:01:59;;;;;;;12.83;5.00;;;9.90;99.90;;;;;;4864837;29;20313;-75
2023/03/22 13:04:30;;;;;;;13.27;5.17;;;9.90;99.90;;;;;;4854226;29;20349;-75